Time;durP1;ratioP1;P1;durP2;ratioP2;P2;SDS_P1;SDS_P2;PMS_P1;PMS_P2;Temp;Humidity;BMP_temperature;BMP_pressure;BME280_temperature;BME280_humidity;BME280_pressure;Samples;Min_cycle;Max_cycle;Signal;HPM_P1;HPM_P2
2021/06/09 00:00:51;;;;;;;0.10;0.10;;;20.00;60.80;;;;;;5077344;28;20046;-78
2021/06/09 00:03:26;;;;;;;0.10;0.10;;;19.90;61.10;;;;;;5067572;28;20034;-78
2021/06/09 00:05:51;;;;;;;0.10;0.10;;;19.90;61.00;;;;;;5037394;28;20395;-79
2021/06/09 00:08:18;;;;;;;0.20;0.10;;;19.90;61.10;;;;;;5037179;28;20033;-79
2021/06/09 00:10:44;;;;;;;0.10;0.10;;;19.90;60.90;;;;;;5044877;28;20082;-79
2021/06/09 00:13:10;;;;;;;0.10;0.10;;;20.00;60.60;;;;;;5057275;28;20364;-79
2021/06/09 00:15:36;;;;;;;0.10;0.10;;;19.90;60.70;;;;;;5055545;28;20182;-79
2021/06/09 00:18:03;;;;;;;0.20;0.10;;;19.80;61.20;;;;;;5057178;28;20423;-78
2021/06/09 00:20:31;;;;;;;0.20;0.10;;;19.80;61.30;;;;;;5074572;28;20025;-78
2021/06/09 00:22:57;;;;;;;0.20;0.20;;;19.70;61.40;;;;;;5035735;28;20071;-78
2021/06/09 00:25:23;;;;;;;0.10;0.10;;;19.70;61.70;;;;;;5052588;28;20124;-78
2021/06/09 00:27:52;;;;;;;0.10;0.10;;;19.60;61.60;;;;;;5036913;28;20052;-78
2021/06/09 00:30:28;;;;;;;0.20;0.10;;;19.70;61.50;;;;;;5036701;28;20021;-78
2021/06/09 00:32:55;;;;;;;0.10;0.10;;;19.60;61.70;;;;;;5037051;28;20368;-77
2021/06/09 00:35:20;;;;;;;0.10;0.10;;;19.60;61.70;;;;;;5035260;28;20029;-79
2021/06/09 00:37:49;;;;;;;0.20;0.20;;;19.60;61.80;;;;;;5036536;28;20159;-78
2021/06/09 00:40:16;;;;;;;0.10;0.10;;;19.60;61.60;;;;;;5036685;28;20033;-79
2021/06/09 00:43:06;;;;;;;0.10;0.10;;;19.50;61.80;;;;;;5036548;28;20025;-78
2021/06/09 00:45:33;;;;;;;0.10;0.10;;;19.40;62.50;;;;;;5036481;28;20642;-78
2021/06/09 00:47:59;;;;;;;0.15;0.10;;;19.40;62.20;;;;;;5036609;28;20105;-78
2021/06/09 00:50:24;;;;;;;0.15;0.10;;;19.40;62.10;;;;;;5036106;28;20029;-79
2021/06/09 00:52:51;;;;;;;0.10;0.10;;;19.40;62.10;;;;;;5040718;28;20041;-78
2021/06/09 00:55:16;;;;;;;0.20;0.20;;;19.30;62.20;;;;;;5051813;28;20049;-78
2021/06/09 00:57:42;;;;;;;0.10;0.10;;;19.30;62.40;;;;;;5036343;28;20035;-78
2021/06/09 01:00:12;;;;;;;0.20;0.10;;;19.30;62.50;;;;;;5065485;28;20028;-78
2021/06/09 01:02:39;;;;;;;0.30;0.20;;;19.10;62.80;;;;;;5072495;28;20048;-78
2021/06/09 01:05:06;;;;;;;0.10;0.10;;;19.10;63.10;;;;;;5036188;28;20034;-78
2021/06/09 01:07:41;;;;;;;0.15;0.10;;;19.10;63.00;;;;;;5051469;28;20407;-78
2021/06/09 01:10:07;;;;;;;0.20;0.10;;;19.00;63.60;;;;;;5034941;28;20118;-78
2021/06/09 01:12:34;;;;;;;0.17;0.17;;;18.90;63.80;;;;;;5035757;28;20582;-78
2021/06/09 01:15:00;;;;;;;0.20;0.20;;;18.90;63.60;;;;;;5034608;28;20026;-79
2021/06/09 01:17:28;;;;;;;0.20;0.20;;;18.90;63.60;;;;;;5036057;28;20032;-79
2021/06/09 01:19:54;;;;;;;0.10;0.10;;;18.90;63.70;;;;;;5054435;28;20089;-78
2021/06/09 01:22:20;;;;;;;0.20;0.20;;;18.90;63.50;;;;;;5049964;28;20453;-78
2021/06/09 01:24:46;;;;;;;0.10;0.10;;;18.90;63.60;;;;;;5041931;28;20028;-79
2021/06/09 01:27:11;;;;;;;0.20;0.20;;;18.80;63.60;;;;;;5055041;28;20100;-78
2021/06/09 01:29:37;;;;;;;0.17;0.13;;;18.80;63.70;;;;;;5067759;28;20035;-78
2021/06/09 01:32:03;;;;;;;0.20;0.10;;;18.80;63.80;;;;;;5035754;28;20693;-78
2021/06/09 01:34:29;;;;;;;0.10;0.10;;;18.70;64.10;;;;;;5035274;28;20041;-78
2021/06/09 01:36:55;;;;;;;0.10;0.10;;;18.60;64.30;;;;;;5035632;28;20029;-78
2021/06/09 01:39:20;;;;;;;0.20;0.10;;;18.60;64.40;;;;;;5052779;28;20022;-79
2021/06/09 01:41:48;;;;;;;0.25;0.20;;;18.60;64.10;;;;;;5054487;28;20033;-78
2021/06/09 01:44:14;;;;;;;0.10;0.10;;;18.60;64.10;;;;;;5055572;28;20021;-78
2021/06/09 01:46:40;;;;;;;0.28;0.20;;;18.50;64.00;;;;;;5055706;28;20057;-78
2021/06/09 01:49:11;;;;;;;0.20;0.10;;;18.50;63.80;;;;;;5051436;28;20052;-78
2021/06/09 01:51:39;;;;;;;0.22;0.20;;;18.50;64.10;;;;;;5035452;28;20387;-78
2021/06/09 01:54:06;;;;;;;0.20;0.20;;;18.50;64.10;;;;;;5035454;28;20108;-79
2021/06/09 01:56:32;;;;;;;0.10;0.10;;;18.40;64.40;;;;;;5033929;28;20093;-79
2021/06/09 01:59:08;;;;;;;0.20;0.20;;;18.40;64.20;;;;;;5047288;28;20077;-78
2021/06/09 02:01:33;;;;;;;0.10;0.10;;;18.40;64.40;;;;;;5054252;28;20036;-78
2021/06/09 02:03:59;;;;;;;0.10;0.10;;;18.30;64.60;;;;;;5055506;28;20021;-78
2021/06/09 02:06:25;;;;;;;0.10;0.10;;;18.30;64.80;;;;;;5036635;28;20037;-78
2021/06/09 02:08:53;;;;;;;0.13;0.10;;;18.40;64.40;;;;;;5035381;28;20033;-78
2021/06/09 02:11:19;;;;;;;0.15;0.15;;;18.50;64.30;;;;;;5051083;28;20037;-78
2021/06/09 02:13:45;;;;;;;0.10;0.10;;;18.40;64.10;;;;;;5039505;28;20033;-79
2021/06/09 02:16:10;;;;;;;0.20;0.20;;;18.30;64.40;;;;;;5039316;28;20069;-78
2021/06/09 02:18:39;;;;;;;0.10;0.10;;;18.40;64.20;;;;;;5039148;28;20045;-78
2021/06/09 02:21:05;;;;;;;0.25;0.20;;;18.30;64.70;;;;;;5039495;28;20403;-78
2021/06/09 02:23:36;;;;;;;0.20;0.20;;;18.20;65.20;;;;;;5037842;28;20021;-78
2021/06/09 02:26:03;;;;;;;0.20;0.20;;;18.20;65.00;;;;;;5039185;28;20060;-78
2021/06/09 02:28:33;;;;;;;0.10;0.10;;;18.20;65.20;;;;;;5055111;28;20067;-78
2021/06/09 02:31:02;;;;;;;0.10;0.10;;;18.10;65.20;;;;;;5058936;28;20084;-78
2021/06/09 02:33:28;;;;;;;0.10;0.10;;;18.10;65.20;;;;;;5046464;28;20063;-78
2021/06/09 02:35:56;;;;;;;0.20;0.20;;;18.10;65.20;;;;;;5054302;28;20057;-78
2021/06/09 02:38:22;;;;;;;0.15;0.10;;;18.00;65.40;;;;;;5054309;28;20072;-78
2021/06/09 02:40:52;;;;;;;0.20;0.20;;;18.10;65.00;;;;;;5037907;28;20029;-78
2021/06/09 02:43:19;;;;;;;0.20;0.20;;;18.10;65.00;;;;;;5037763;28;20017;-78
2021/06/09 02:45:51;;;;;;;0.20;0.20;;;18.10;64.80;;;;;;5038623;28;20033;-78
2021/06/09 02:48:29;;;;;;;0.20;0.20;;;18.10;65.00;;;;;;5037718;28;20499;-77
2021/06/09 02:50:55;;;;;;;0.10;0.10;;;18.20;64.80;;;;;;5038667;28;20029;-78
2021/06/09 02:53:29;;;;;;;0.20;0.15;;;18.10;64.70;;;;;;5038624;28;20033;-78
2021/06/09 02:55:57;;;;;;;0.20;0.20;;;18.10;65.00;;;;;;5053715;28;20041;-78
2021/06/09 02:58:38;;;;;;;0.20;0.20;;;18.00;65.30;;;;;;5040648;28;20022;-78
2021/06/09 03:01:29;;;;;;;0.20;0.20;;;18.10;65.70;;;;;;5067835;28;20033;-78
2021/06/09 03:04:06;;;;;;;0.20;0.20;;;17.90;66.00;;;;;;5057227;28;20025;-78
2021/06/09 03:06:52;;;;;;;0.10;0.10;;;17.90;66.00;;;;;;5048348;28;20087;-78
2021/06/09 03:09:36;;;;;;;0.13;0.13;;;18.00;65.80;;;;;;5038439;28;20021;-78
2021/06/09 03:12:34;;;;;;;0.20;0.20;;;18.00;65.90;;;;;;5036832;28;20495;-78
2021/06/09 03:15:12;;;;;;;0.10;0.10;;;18.00;65.70;;;;;;5038209;28;20021;-78
2021/06/09 03:17:59;;;;;;;0.20;0.20;;;18.00;65.60;;;;;;5036955;28;20039;-78
2021/06/09 03:20:34;;;;;;;0.10;0.10;;;18.00;65.60;;;;;;5037844;28;20032;-78
2021/06/09 03:23:16;;;;;;;0.20;0.20;;;18.00;65.90;;;;;;5037363;28;20029;-78
2021/06/09 03:25:52;;;;;;;0.20;0.20;;;17.90;66.10;;;;;;5038196;28;20060;-77
2021/06/09 03:28:51;;;;;;;0.20;0.20;;;17.90;66.10;;;;;;5038042;28;20132;-78
2021/06/09 03:31:23;;;;;;;0.17;0.17;;;17.90;66.10;;;;;;5048229;28;20049;-78
2021/06/09 03:33:53;;;;;;;0.20;0.20;;;17.90;66.30;;;;;;5053294;28;20025;-78
2021/06/09 03:36:24;;;;;;;0.20;0.20;;;17.80;66.40;;;;;;5053067;28;20025;-78
2021/06/09 03:38:56;;;;;;;;;;;17.80;66.40;;;;;;5038290;28;20083;-78
2021/06/09 03:41:24;;;;;;;0.20;0.20;;;17.80;66.70;;;;;;5037798;28;19905;-78
2021/06/09 03:43:54;;;;;;;0.25;0.20;;;17.90;66.10;;;;;;5036510;28;20052;-78
2021/06/09 03:46:24;;;;;;;0.20;0.20;;;17.90;66.00;;;;;;5038030;28;20040;-78
2021/06/09 03:48:53;;;;;;;0.30;0.20;;;17.90;66.60;;;;;;5037649;28;20030;-78
2021/06/09 03:51:23;;;;;;;0.15;0.10;;;17.90;66.30;;;;;;5037668;28;20032;-78
2021/06/09 03:53:49;;;;;;;;;;;17.80;66.30;;;;;;5080188;28;20033;-78
2021/06/09 03:56:17;;;;;;;0.20;0.20;;;17.80;66.60;;;;;;5057420;28;19916;-78
2021/06/09 03:58:43;;;;;;;0.20;0.20;;;17.80;67.00;;;;;;5093626;28;20122;-78
2021/06/09 04:01:10;;;;;;;0.20;0.20;;;17.80;66.80;;;;;;5060536;28;20065;-78
2021/06/09 04:03:40;;;;;;;0.20;0.20;;;17.80;66.90;;;;;;5037560;28;20091;-78
2021/06/09 04:06:10;;;;;;;0.20;0.20;;;17.70;67.10;;;;;;5036035;28;20053;-78
2021/06/09 04:08:37;;;;;;;;;;;17.80;66.70;;;;;;5046826;28;20155;-78
2021/06/09 04:11:03;;;;;;;0.10;0.10;;;17.80;67.00;;;;;;5057176;28;19909;-79
2021/06/09 04:13:33;;;;;;;0.50;0.20;;;17.80;66.70;;;;;;5047334;28;20128;-78
2021/06/09 04:16:00;;;;;;;0.13;0.13;;;17.80;67.00;;;;;;5054080;28;20083;-78
2021/06/09 04:18:29;;;;;;;0.20;0.20;;;17.70;67.70;;;;;;5036958;28;20083;-79
2021/06/09 04:20:57;;;;;;;0.20;0.20;;;17.70;67.80;;;;;;5036994;28;20452;-78
2021/06/09 04:23:23;;;;;;;0.20;0.20;;;17.70;67.70;;;;;;5037114;28;20026;-82
2021/06/09 04:25:49;;;;;;;0.20;0.20;;;17.70;67.70;;;;;;5042834;28;20040;-77
2021/06/09 04:28:19;;;;;;;0.30;0.20;;;17.70;67.70;;;;;;5056801;28;20021;-78
2021/06/09 04:30:48;;;;;;;;;;;17.70;67.70;;;;;;5057346;28;20029;-76
2021/06/09 04:33:14;;;;;;;0.22;0.20;;;17.80;67.70;;;;;;5054951;28;19913;-77
2021/06/09 04:35:45;;;;;;;0.20;0.20;;;17.80;67.70;;;;;;5087800;28;20025;-77
2021/06/09 04:38:18;;;;;;;0.20;0.20;;;17.80;68.00;;;;;;5089070;28;20495;-77
2021/06/09 04:40:46;;;;;;;0.20;0.20;;;17.80;67.90;;;;;;5038612;28;20057;-77
2021/06/09 04:43:12;;;;;;;0.20;0.20;;;17.90;67.70;;;;;;5051773;28;20025;-77
2021/06/09 04:45:38;;;;;;;0.20;0.20;;;17.90;67.50;;;;;;5057528;28;20039;-77
2021/06/09 04:48:11;;;;;;;0.20;0.20;;;17.90;67.80;;;;;;5056542;28;20029;-77
2021/06/09 04:50:38;;;;;;;0.28;0.20;;;17.90;67.70;;;;;;5056318;28;20558;-77
2021/06/09 04:53:10;;;;;;;0.20;0.20;;;17.90;67.40;;;;;;5067865;28;20036;-76
2021/06/09 04:55:44;;;;;;;0.20;0.20;;;17.80;67.80;;;;;;5039661;28;20408;-76
2021/06/09 04:58:11;;;;;;;0.20;0.20;;;17.80;68.30;;;;;;5036555;28;20024;-76
2021/06/09 05:00:37;;;;;;;0.20;0.20;;;17.80;68.30;;;;;;5075092;28;20931;-76
2021/06/09 05:03:03;;;;;;;0.20;0.20;;;17.80;68.10;;;;;;5075927;28;20433;-77
2021/06/09 05:05:29;;;;;;;0.20;0.20;;;17.80;68.10;;;;;;5074734;28;20028;-78
2021/06/09 05:07:55;;;;;;;0.20;0.20;;;17.70;68.50;;;;;;5062533;28;20063;-78
2021/06/09 05:10:21;;;;;;;0.30;0.20;;;17.80;68.30;;;;;;5055930;28;20025;-78
2021/06/09 05:13:01;;;;;;;0.20;0.20;;;17.80;68.40;;;;;;5041829;28;20396;-78
2021/06/09 05:15:30;;;;;;;0.20;0.20;;;17.70;68.40;;;;;;5035916;28;20475;-80
2021/06/09 05:17:55;;;;;;;0.30;0.20;;;17.70;68.70;;;;;;5035528;28;20555;-77
2021/06/09 05:20:26;;;;;;;0.20;0.20;;;17.80;68.60;;;;;;5054915;28;20079;-78
2021/06/09 05:23:01;;;;;;;0.20;0.20;;;17.80;68.70;;;;;;5055597;28;20109;-77
2021/06/09 05:25:28;;;;;;;0.28;0.20;;;17.80;68.60;;;;;;5052756;28;20017;-77
2021/06/09 05:27:56;;;;;;;0.20;0.20;;;18.00;68.20;;;;;;5040665;28;20041;-76
2021/06/09 05:30:23;;;;;;;0.20;0.20;;;18.00;68.20;;;;;;5034267;28;20026;-77
2021/06/09 05:32:51;;;;;;;0.10;0.10;;;18.10;68.10;;;;;;5036745;28;20487;-77
2021/06/09 05:35:17;;;;;;;0.20;0.20;;;18.10;68.10;;;;;;5038470;28;20025;-77
2021/06/09 05:37:45;;;;;;;0.20;0.20;;;18.10;68.30;;;;;;5055548;28;20040;-77
2021/06/09 05:40:14;;;;;;;0.20;0.20;;;18.10;68.40;;;;;;5054640;28;20103;-77
2021/06/09 05:42:39;;;;;;;0.20;0.20;;;18.30;68.00;;;;;;5053441;28;20029;-77
2021/06/09 05:45:06;;;;;;;0.30;0.20;;;18.30;68.20;;;;;;5053989;28;20381;-77
2021/06/09 05:47:44;;;;;;;0.13;0.13;;;18.30;68.00;;;;;;5052345;28;20067;-77
2021/06/09 05:50:17;;;;;;;0.20;0.20;;;18.30;67.90;;;;;;5045208;28;20484;-77
2021/06/09 05:52:45;;;;;;;0.30;0.22;;;18.50;67.60;;;;;;5048447;28;20082;-78
2021/06/09 05:55:19;;;;;;;0.15;0.15;;;18.50;67.60;;;;;;5047900;28;20041;-78
2021/06/09 05:57:46;;;;;;;0.20;0.10;;;18.50;67.80;;;;;;5053676;28;20124;-78
2021/06/09 06:00:13;;;;;;;0.20;0.20;;;18.60;67.40;;;;;;5052963;28;20036;-78
2021/06/09 06:02:40;;;;;;;0.30;0.20;;;18.70;67.40;;;;;;5052894;28;20021;-78
2021/06/09 06:05:07;;;;;;;0.20;0.20;;;18.70;67.20;;;;;;5051920;28;20032;-77
2021/06/09 06:07:34;;;;;;;0.20;0.20;;;18.60;67.20;;;;;;5053232;28;20017;-78
2021/06/09 06:10:01;;;;;;;0.17;0.13;;;18.60;67.30;;;;;;5051417;28;20898;-78
2021/06/09 06:12:27;;;;;;;0.20;0.20;;;18.70;67.50;;;;;;5053785;28;20510;-77
2021/06/09 06:14:53;;;;;;;0.20;0.20;;;18.70;67.70;;;;;;5053776;28;20036;-76
2021/06/09 06:17:20;;;;;;;0.30;0.20;;;18.60;67.70;;;;;;5051329;28;20036;-78
2021/06/09 06:19:49;;;;;;;0.20;0.20;;;18.50;68.10;;;;;;5052283;28;20359;-78
2021/06/09 06:22:15;;;;;;;0.20;0.20;;;18.70;67.60;;;;;;5053309;28;20028;-78
2021/06/09 06:24:44;;;;;;;0.22;0.20;;;18.80;67.00;;;;;;5053755;28;20087;-79
2021/06/09 06:27:12;;;;;;;0.40;0.20;;;19.10;66.60;;;;;;5077121;28;20029;-77
2021/06/09 06:29:39;;;;;;;0.30;0.20;;;19.30;65.80;;;;;;5053047;28;20438;-79
2021/06/09 06:32:06;;;;;;;0.20;0.20;;;19.30;65.70;;;;;;5053031;28;20033;-78
2021/06/09 06:34:39;;;;;;;0.10;0.10;;;19.40;65.70;;;;;;5046631;28;20414;-77
2021/06/09 06:37:06;;;;;;;0.20;0.10;;;19.60;65.10;;;;;;5040588;28;20031;-77
2021/06/09 06:39:33;;;;;;;0.10;0.10;;;19.70;64.60;;;;;;5052278;28;20120;-78
2021/06/09 06:41:59;;;;;;;0.10;0.10;;;19.90;64.20;;;;;;5050402;28;20025;-77
2021/06/09 06:44:26;;;;;;;0.10;0.10;;;20.10;63.60;;;;;;5052042;28;20033;-77
2021/06/09 06:46:52;;;;;;;0.17;0.17;;;20.10;63.40;;;;;;5053438;28;20025;-78
2021/06/09 06:49:19;;;;;;;0.10;0.10;;;20.10;63.40;;;;;;5054087;28;20017;-78
2021/06/09 06:51:50;;;;;;;0.30;0.20;;;20.20;63.20;;;;;;5053975;28;20021;-78
2021/06/09 06:54:16;;;;;;;0.20;0.15;;;20.10;63.70;;;;;;5045833;28;20042;-77
2021/06/09 06:56:42;;;;;;;0.20;0.20;;;19.90;64.30;;;;;;5035508;28;20047;-77
2021/06/09 06:59:08;;;;;;;0.30;0.20;;;19.80;64.30;;;;;;5053851;28;20032;-77
2021/06/09 07:01:36;;;;;;;0.10;0.10;;;19.90;64.50;;;;;;5053603;28;20032;-78
2021/06/09 07:04:04;;;;;;;0.20;0.10;;;19.80;65.10;;;;;;5053813;28;20033;-77
2021/06/09 07:06:32;;;;;;;0.25;0.20;;;19.90;64.80;;;;;;5054799;28;20052;-79
2021/06/09 07:09:00;;;;;;;0.15;0.13;;;19.80;64.70;;;;;;5055795;28;20106;-78
2021/06/09 07:11:26;;;;;;;0.13;0.10;;;19.80;64.90;;;;;;5057144;28;20520;-78
2021/06/09 07:13:52;;;;;;;0.10;0.10;;;19.90;64.70;;;;;;5041320;28;20037;-78
2021/06/09 07:16:21;;;;;;;0.13;0.13;;;19.90;64.90;;;;;;5037238;28;20041;-78
2021/06/09 07:18:47;;;;;;;0.13;0.13;;;20.00;64.80;;;;;;5049896;28;20131;-78
2021/06/09 07:21:17;;;;;;;0.20;0.20;;;20.10;64.70;;;;;;5056099;28;20021;-78
2021/06/09 07:23:44;;;;;;;0.30;0.20;;;20.40;64.30;;;;;;5049792;28;20032;-78
2021/06/09 07:26:13;;;;;;;0.10;0.10;;;21.60;61.90;;;;;;5056966;28;20181;-78
2021/06/09 07:28:43;;;;;;;0.10;0.10;;;24.30;53.40;;;;;;5057305;28;20598;-79
2021/06/09 07:31:10;;;;;;;0.10;0.10;;;27.10;48.30;;;;;;5057550;28;20025;-79
2021/06/09 07:33:36;;;;;;;0.00;0.00;;;29.20;43.50;;;;;;5056804;28;20048;-79
2021/06/09 07:36:06;;;;;;;0.00;0.00;;;31.20;39.60;;;;;;5037212;28;20116;-80
2021/06/09 07:38:38;;;;;;;0.08;0.08;;;32.40;36.00;;;;;;5039850;28;20033;-79
2021/06/09 07:41:07;;;;;;;0.10;0.10;;;33.40;34.20;;;;;;5056029;28;20016;-79
2021/06/09 07:43:38;;;;;;;0.08;0.08;;;34.40;33.00;;;;;;5055331;28;20395;-77
2021/06/09 07:46:07;;;;;;;0.08;0.00;;;35.10;31.70;;;;;;5055304;28;20036;-78
2021/06/09 07:48:34;;;;;;;0.00;0.00;;;35.60;30.80;;;;;;5046181;28;20018;-77
2021/06/09 07:51:05;;;;;;;0.00;0.00;;;36.20;30.30;;;;;;5052123;28;20025;-78
2021/06/09 07:53:31;;;;;;;0.00;0.00;;;36.50;29.80;;;;;;5036607;28;20029;-77
2021/06/09 07:55:57;;;;;;;0.00;0.00;;;37.10;28.90;;;;;;5053750;28;20073;-77
2021/06/09 07:58:27;;;;;;;0.00;0.00;;;37.40;28.60;;;;;;5038797;28;20033;-77
2021/06/09 08:00:55;;;;;;;0.13;0.10;;;37.80;28.00;;;;;;5067835;28;20060;-77
2021/06/09 08:03:25;;;;;;;0.03;0.00;;;37.90;27.70;;;;;;5053572;28;20036;-78
2021/06/09 08:05:52;;;;;;;0.00;0.00;;;38.10;27.30;;;;;;5066821;28;20035;-78
2021/06/09 08:08:17;;;;;;;0.00;0.00;;;38.20;27.00;;;;;;5056143;28;20051;-78
2021/06/09 08:10:44;;;;;;;0.00;0.00;;;38.30;27.00;;;;;;5055429;28;20443;-78
2021/06/09 08:13:10;;;;;;;0.10;0.10;;;38.40;26.80;;;;;;5054344;28;20075;-78
2021/06/09 08:15:37;;;;;;;0.00;0.00;;;38.50;26.90;;;;;;5056399;28;20032;-78
2021/06/09 08:18:04;;;;;;;0.00;0.00;;;38.90;26.30;;;;;;5053763;28;20024;-77
2021/06/09 08:20:30;;;;;;;0.00;0.00;;;39.00;26.00;;;;;;5055836;28;20014;-78
2021/06/09 08:22:58;;;;;;;0.10;0.10;;;38.90;26.20;;;;;;5050216;28;20025;-78
2021/06/09 08:25:24;;;;;;;0.08;0.08;;;38.90;25.80;;;;;;5056272;28;20064;-78
2021/06/09 08:27:54;;;;;;;0.10;0.10;;;38.90;26.40;;;;;;5055204;28;20032;-78
2021/06/09 08:30:22;;;;;;;0.10;0.10;;;39.10;25.50;;;;;;5046378;28;20143;-78
2021/06/09 08:32:47;;;;;;;0.00;0.00;;;39.00;25.70;;;;;;5056035;28;20043;-78
2021/06/09 08:35:14;;;;;;;0.10;0.00;;;39.00;25.70;;;;;;5055236;28;20029;-78
2021/06/09 08:37:42;;;;;;;0.00;0.00;;;38.80;26.30;;;;;;5056865;28;20512;-78
2021/06/09 08:40:10;;;;;;;0.10;0.10;;;38.80;26.10;;;;;;5055364;28;20056;-78
2021/06/09 08:42:36;;;;;;;;;;;38.50;26.40;;;;;;5056354;28;20021;-78
2021/06/09 08:45:05;;;;;;;0.20;0.00;;;38.40;26.80;;;;;;5054358;28;19905;-78
2021/06/09 08:47:32;;;;;;;0.10;0.10;;;38.60;26.80;;;;;;5054613;28;20415;-79
2021/06/09 08:49:58;;;;;;;0.03;0.03;;;38.60;26.70;;;;;;5055308;28;20024;-79
2021/06/09 08:52:28;;;;;;;0.10;0.10;;;38.70;26.90;;;;;;5055655;28;20111;-78
2021/06/09 08:54:54;;;;;;;0.10;0.10;;;38.90;27.10;;;;;;5034771;28;20106;-78
2021/06/09 08:57:20;;;;;;;0.03;0.03;;;38.80;26.30;;;;;;5055063;28;20029;-78
2021/06/09 08:59:46;;;;;;;0.00;0.00;;;38.80;26.90;;;;;;5066081;28;20067;-78
2021/06/09 09:02:13;;;;;;;0.00;0.00;;;38.80;26.50;;;;;;5074843;28;20025;-77
2021/06/09 09:04:40;;;;;;;0.08;0.08;;;38.60;27.60;;;;;;5042750;28;20052;-78
2021/06/09 09:07:10;;;;;;;0.00;0.00;;;38.40;27.10;;;;;;5035400;28;20026;-78
2021/06/09 09:09:37;;;;;;;0.05;0.05;;;38.60;27.00;;;;;;5046298;28;20052;-78
2021/06/09 09:12:04;;;;;;;0.10;0.10;;;38.60;27.30;;;;;;5038314;28;20022;-78
2021/06/09 09:14:30;;;;;;;0.00;0.00;;;38.90;27.10;;;;;;5042761;28;20082;-78
2021/06/09 09:17:06;;;;;;;0.10;0.10;;;39.00;26.60;;;;;;5054704;28;20033;-78
2021/06/09 09:19:35;;;;;;;0.00;0.00;;;39.00;26.50;;;;;;5053350;28;20395;-78
2021/06/09 09:22:01;;;;;;;0.10;0.10;;;39.20;26.70;;;;;;5053164;28;20063;-78
2021/06/09 09:24:43;;;;;;;0.10;0.10;;;39.30;26.40;;;;;;5054501;28;20025;-78
2021/06/09 09:27:10;;;;;;;0.10;0.10;;;39.50;26.00;;;;;;5052509;28;20090;-78
2021/06/09 09:29:36;;;;;;;0.10;0.10;;;39.50;26.00;;;;;;5086509;28;20043;-78
2021/06/09 09:32:07;;;;;;;0.10;0.10;;;39.60;26.40;;;;;;5043455;28;20069;-78
2021/06/09 09:34:37;;;;;;;0.10;0.10;;;39.60;26.00;;;;;;5033956;28;20109;-78
2021/06/09 09:37:09;;;;;;;0.10;0.10;;;39.80;26.00;;;;;;5053971;28;20078;-77
2021/06/09 09:39:38;;;;;;;0.08;0.08;;;39.70;26.90;;;;;;5054400;28;20032;-78
2021/06/09 09:42:19;;;;;;;0.10;0.10;;;39.90;26.70;;;;;;5054267;28;20555;-78
2021/06/09 09:44:45;;;;;;;0.10;0.10;;;39.30;26.90;;;;;;5048715;28;20025;-77
2021/06/09 09:47:16;;;;;;;0.10;0.10;;;39.50;26.70;;;;;;5054102;28;20021;-77
2021/06/09 09:49:41;;;;;;;0.10;0.10;;;39.40;27.20;;;;;;5050539;28;20116;-77
2021/06/09 09:52:07;;;;;;;0.00;0.00;;;39.80;26.80;;;;;;5052021;28;20017;-77
2021/06/09 09:54:35;;;;;;;0.10;0.10;;;40.10;26.60;;;;;;5051862;28;20562;-78
2021/06/09 09:57:06;;;;;;;0.13;0.10;;;39.80;26.50;;;;;;5051161;28;20021;-77
2021/06/09 09:59:32;;;;;;;0.10;0.10;;;39.80;26.40;;;;;;5054180;28;20021;-78
2021/06/09 10:02:02;;;;;;;0.00;0.00;;;39.70;26.00;;;;;;5053950;28;20039;-78
2021/06/09 10:04:34;;;;;;;0.10;0.10;;;39.80;26.70;;;;;;5052511;28;20029;-78
2021/06/09 10:07:01;;;;;;;0.10;0.10;;;39.90;25.60;;;;;;5061136;28;20051;-78
2021/06/09 10:09:47;;;;;;;0.00;0.00;;;39.80;26.60;;;;;;5052933;28;20028;-78
2021/06/09 10:12:15;;;;;;;0.00;0.00;;;39.80;26.00;;;;;;5045547;28;20128;-78
2021/06/09 10:14:47;;;;;;;0.10;0.10;;;39.70;26.10;;;;;;5046612;28;20061;-78
2021/06/09 10:17:15;;;;;;;0.10;0.10;;;39.70;26.10;;;;;;5054252;28;20837;-78
2021/06/09 10:19:43;;;;;;;0.25;0.10;;;39.30;26.40;;;;;;5051468;28;20025;-78
2021/06/09 10:22:11;;;;;;;0.10;0.10;;;39.20;27.10;;;;;;5053429;28;20056;-82
2021/06/09 10:24:43;;;;;;;0.10;0.10;;;39.10;27.70;;;;;;5053631;28;20030;-79
2021/06/09 10:27:09;;;;;;;0.00;0.00;;;38.60;27.20;;;;;;5047996;28;20021;-76
2021/06/09 10:29:35;;;;;;;0.10;0.10;;;38.20;27.30;;;;;;5034399;28;20093;-78
2021/06/09 10:32:04;;;;;;;0.10;0.10;;;37.70;27.70;;;;;;5035159;28;20036;-78
2021/06/09 10:34:34;;;;;;;0.00;0.00;;;37.70;28.60;;;;;;5037532;28;20075;-76
2021/06/09 10:37:01;;;;;;;0.00;0.00;;;37.30;28.90;;;;;;5055403;28;20494;-79
2021/06/09 10:39:30;;;;;;;0.00;0.00;;;36.60;29.50;;;;;;5055158;28;20121;-78
2021/06/09 10:42:03;;;;;;;0.00;0.00;;;36.00;31.30;;;;;;5055610;28;20033;-78
2021/06/09 10:44:38;;;;;;;0.00;0.00;;;35.50;31.50;;;;;;5057793;28;20424;-77
2021/06/09 10:47:05;;;;;;;0.00;0.00;;;34.80;33.00;;;;;;5055968;28;20518;-78
2021/06/09 10:49:34;;;;;;;0.05;0.00;;;34.60;33.10;;;;;;5045712;28;20124;-78
2021/06/09 10:52:01;;;;;;;0.00;0.00;;;34.10;33.60;;;;;;5052899;28;20025;-78
2021/06/09 10:54:26;;;;;;;0.00;0.00;;;33.60;34.40;;;;;;5037400;28;20057;-76
2021/06/09 10:56:54;;;;;;;0.00;0.00;;;33.30;34.80;;;;;;5037499;28;20030;-77
2021/06/09 10:59:27;;;;;;;0.00;0.00;;;33.00;35.70;;;;;;5051813;28;20039;-77
2021/06/09 11:02:09;;;;;;;0.00;0.00;;;32.90;35.60;;;;;;5055842;28;20083;-78
2021/06/09 11:04:40;;;;;;;0.00;0.00;;;32.50;36.00;;;;;;5054626;28;20036;-81
2021/06/09 11:07:24;;;;;;;0.10;0.00;;;32.50;36.70;;;;;;5051945;28;20033;-79
2021/06/09 11:09:50;;;;;;;0.00;0.00;;;32.00;36.00;;;;;;5072573;28;20424;-81
2021/06/09 11:12:19;;;;;;;0.00;0.00;;;31.60;37.50;;;;;;5054390;28;20064;-79
2021/06/09 11:14:51;;;;;;;0.20;0.00;;;31.60;37.50;;;;;;5054966;28;20375;-78
2021/06/09 11:17:38;;;;;;;0.00;0.00;;;31.70;37.10;;;;;;5051890;28;20039;-78
2021/06/09 11:20:14;;;;;;;0.00;0.00;;;31.70;38.00;;;;;;5052755;28;20491;-78
2021/06/09 11:22:47;;;;;;;0.00;0.00;;;31.40;37.50;;;;;;5054525;28;20021;-79
2021/06/09 11:25:30;;;;;;;0.05;0.00;;;31.40;39.60;;;;;;5054750;28;20032;-78
2021/06/09 11:28:05;;;;;;;0.00;0.00;;;31.30;38.40;;;;;;5054314;28;20043;-78
2021/06/09 11:30:31;;;;;;;0.00;0.00;;;31.50;39.20;;;;;;5054528;28;20032;-79
2021/06/09 11:32:59;;;;;;;0.00;0.00;;;31.20;38.40;;;;;;5054565;28;20029;-77
2021/06/09 11:35:45;;;;;;;0.00;0.00;;;31.00;39.60;;;;;;5063771;28;20128;-78
2021/06/09 11:38:14;;;;;;;0.00;0.00;;;31.20;39.50;;;;;;5066341;28;20043;-78
2021/06/09 11:40:49;;;;;;;0.00;0.00;;;31.10;37.90;;;;;;5053359;28;20032;-77
2021/06/09 11:43:20;;;;;;;0.00;0.00;;;31.00;38.60;;;;;;5053060;28;20391;-77
2021/06/09 11:46:00;;;;;;;0.00;0.00;;;31.10;38.70;;;;;;5057519;28;20149;-78
2021/06/09 11:48:28;;;;;;;0.00;0.00;;;31.00;39.10;;;;;;5053900;28;20044;-78
2021/06/09 11:51:32;;;;;;;0.00;0.00;;;30.80;39.70;;;;;;5053430;28;20029;-78
2021/06/09 11:54:01;;;;;;;0.00;0.00;;;30.80;40.20;;;;;;4994125;28;20042;-78
2021/06/09 11:56:38;;;;;;;;;;;30.90;40.00;;;;;;5042213;28;20897;-78
2021/06/09 11:59:07;;;;;;;0.00;0.00;;;31.10;38.50;;;;;;5054102;28;20724;-79
2021/06/09 12:01:37;;;;;;;0.00;0.00;;;30.80;37.10;;;;;;5054094;28;20488;-78
2021/06/09 12:04:21;;;;;;;0.00;0.00;;;30.90;37.90;;;;;;5051866;28;20029;-78
2021/06/09 12:06:58;;;;;;;0.00;0.00;;;31.00;39.10;;;;;;5054349;28;20135;-78
2021/06/09 12:09:24;;;;;;;0.00;0.00;;;31.00;38.90;;;;;;5080995;28;20030;-78
2021/06/09 12:11:56;;;;;;;0.00;0.00;;;30.80;40.80;;;;;;5054295;28;20025;-78
2021/06/09 12:14:32;;;;;;;0.00;0.00;;;30.90;39.10;;;;;;5055109;28;20029;-78
2021/06/09 12:17:25;;;;;;;0.00;0.00;;;30.80;39.30;;;;;;5036262;28;20060;-78
2021/06/09 12:20:07;;;;;;;0.00;0.00;;;30.90;39.40;;;;;;5041338;28;20029;-77
2021/06/09 12:22:34;;;;;;;0.00;0.00;;;30.90;38.80;;;;;;5052888;28;20017;-77
2021/06/09 12:25:10;;;;;;;0.00;0.00;;;30.80;38.10;;;;;;5042700;28;20017;-77
2021/06/09 12:27:39;;;;;;;0.00;0.00;;;30.90;40.60;;;;;;5051284;28;20018;-78
2021/06/09 12:30:19;;;;;;;0.00;0.00;;;31.10;40.60;;;;;;5051561;28;20030;-77
2021/06/09 12:32:45;;;;;;;0.00;0.00;;;31.00;39.20;;;;;;5043899;28;20017;-77
2021/06/09 12:35:13;;;;;;;0.00;0.00;;;31.10;39.20;;;;;;5052852;28;20029;-78
2021/06/09 12:37:45;;;;;;;0.00;0.00;;;31.30;39.10;;;;;;5052144;28;20021;-78
2021/06/09 12:40:13;;;;;;;0.00;0.00;;;31.40;37.90;;;;;;5045697;28;20029;-78
2021/06/09 12:42:45;;;;;;;0.00;0.00;;;31.30;38.20;;;;;;5046624;28;20116;-78
2021/06/09 12:45:12;;;;;;;0.00;0.00;;;31.30;35.60;;;;;;5070202;28;20487;-78
2021/06/09 12:47:40;;;;;;;0.00;0.00;;;31.30;37.70;;;;;;5042706;28;20526;-78
2021/06/09 12:50:17;;;;;;;0.03;0.00;;;31.30;38.10;;;;;;5034754;28;20443;-78
2021/06/09 12:52:45;;;;;;;0.00;0.00;;;31.30;36.40;;;;;;5035806;28;20032;-78
2021/06/09 12:55:18;;;;;;;0.00;0.00;;;31.30;36.50;;;;;;5034253;28;20053;-77
2021/06/09 12:57:45;;;;;;;0.00;0.00;;;31.30;38.70;;;;;;5048376;28;20439;-77
2021/06/09 13:00:26;;;;;;;0.00;0.00;;;31.30;39.50;;;;;;5071224;28;20020;-78